createdAt,value
2018-03-15T00:02:29.540Z,80.82
2018-03-15T00:05:01.234Z,82.13
2018-03-15T00:07:33.057Z,81.79
2018-03-15T00:10:04.877Z,81.73
2018-03-15T00:12:36.721Z,81.90
2018-03-15T00:15:07.683Z,82.45
2018-03-15T00:17:38.473Z,81.66
2018-03-15T00:20:09.588Z,81.23
2018-03-15T00:22:41.025Z,81.74
2018-03-15T00:25:12.488Z,81.62
2018-03-15T00:27:44.252Z,80.96
2018-03-15T00:30:15.068Z,81.24
2018-03-15T00:32:46.500Z,80.64
2018-03-15T00:35:18.221Z,80.19
2018-03-15T00:37:50.044Z,82.02
2018-03-15T00:40:22.036Z,80.89
2018-03-15T00:42:52.864Z,80.88
2018-03-15T00:45:23.643Z,81.46
2018-03-15T00:47:55.456Z,80.54
2018-03-15T00:50:27.001Z,81.36
2018-03-15T00:52:58.268Z,81.35
2018-03-15T00:55:30.381Z,81.78
2018-03-15T00:58:02.565Z,81.28
2018-03-15T01:00:34.291Z,80.83
2018-03-15T01:03:05.510Z,82.35
2018-03-15T01:05:36.305Z,80.84
2018-03-15T01:08:08.154Z,81.43
2018-03-15T01:10:39.352Z,80.24
2018-03-15T01:13:10.869Z,80.61
2018-03-15T01:15:42.768Z,81.34
2018-03-15T01:18:13.992Z,82.38
2018-03-15T01:20:45.802Z,81.89
2018-03-15T01:23:16.656Z,82.76
2018-03-15T01:25:48.093Z,82.35
2018-03-15T01:28:19.364Z,82.19
2018-03-15T01:30:51.072Z,82.15
2018-03-15T01:33:22.545Z,82.60
2018-03-15T01:35:53.674Z,83.23
2018-03-15T01:38:25.203Z,83.39
2018-03-15T01:40:57.120Z,82.76
2018-03-15T01:43:28.443Z,83.51
2018-03-15T01:45:59.793Z,83.03
2018-03-15T01:48:32.217Z,82.82
2018-03-15T01:51:03.684Z,82.69
2018-03-15T01:53:34.980Z,86.34
2018-03-15T01:56:06.805Z,83.18
2018-03-15T01:58:38.390Z,81.99
2018-03-15T02:01:09.880Z,81.93
2018-03-15T02:03:41.721Z,81.99
2018-03-15T02:06:13.083Z,81.86
2018-03-15T02:08:44.608Z,82.65
2018-03-15T02:11:16.487Z,82.32
2018-03-15T02:13:47.900Z,82.63
2018-03-15T02:16:19.645Z,82.08
2018-03-15T02:18:50.706Z,81.41
2018-03-15T02:21:21.889Z,81.89
2018-03-15T02:23:53.827Z,82.10
2018-03-15T02:26:25.117Z,82.08
2018-03-15T02:28:56.689Z,82.29
2018-03-15T02:31:28.637Z,82.22
2018-03-15T02:33:59.879Z,83.02
2018-03-15T02:36:31.754Z,84.27
2018-03-15T02:39:03.135Z,82.60
2018-03-15T02:41:34.569Z,83.18
2018-03-15T02:44:05.929Z,83.12
2018-03-15T02:46:38.877Z,83.28
2018-03-15T02:49:10.530Z,84.60
2018-03-15T02:51:42.118Z,86.26
2018-03-15T02:54:13.550Z,85.92
2018-03-15T02:56:44.726Z,91.53
2018-03-15T02:59:16.081Z,90.98
2018-03-15T03:01:47.527Z,89.47
2018-03-15T03:04:18.879Z,88.51
2018-03-15T03:06:50.766Z,88.88
2018-03-15T03:09:21.950Z,87.88
2018-03-15T03:11:53.945Z,86.89
2018-03-15T03:14:25.454Z,87.40
2018-03-15T03:16:57.342Z,87.37
2018-03-15T03:19:28.461Z,85.50
2018-03-15T03:21:59.793Z,85.54
2018-03-15T03:24:31.269Z,84.74
2018-03-15T03:27:02.501Z,84.87
2018-03-15T03:29:34.333Z,84.39
2018-03-15T03:32:07.241Z,86.02
2018-03-15T03:34:38.517Z,88.34
2018-03-15T03:37:10.017Z,84.48
2018-03-15T03:39:41.296Z,83.92
2018-03-15T03:42:12.666Z,84.87
2018-03-15T03:44:44.153Z,84.36
2018-03-15T03:47:15.915Z,83.79
2018-03-15T03:49:47.436Z,84.00
2018-03-15T03:52:19.361Z,82.85
2018-03-15T03:54:51.025Z,83.07
2018-03-15T03:57:22.426Z,84.44
2018-03-15T03:59:53.534Z,84.10
2018-03-15T04:02:24.772Z,85.61
2018-03-15T04:04:56.471Z,83.88
2018-03-15T04:07:29.605Z,84.31
2018-03-15T04:10:01.222Z,83.62
2018-03-15T04:12:33.009Z,83.43
2018-03-15T04:15:05.381Z,84.22
2018-03-15T04:17:36.789Z,83.44
2018-03-15T04:20:08.099Z,82.79
2018-03-15T04:22:40.086Z,82.92
2018-03-15T04:25:11.970Z,83.06
2018-03-15T04:27:43.542Z,83.75
2018-03-15T04:30:14.693Z,83.74
2018-03-15T04:32:46.179Z,84.30
2018-03-15T04:35:17.969Z,83.67
2018-03-15T04:37:49.485Z,85.58
2018-03-15T04:40:21.264Z,86.64
2018-03-15T04:42:52.580Z,90.49
2018-03-15T04:45:25.305Z,93.55
2018-03-15T04:47:56.617Z,91.95
2018-03-15T04:50:27.981Z,89.10
2018-03-15T04:52:59.577Z,88.51
2018-03-15T04:55:45.545Z,90.20
2018-03-15T04:58:17.207Z,89.14
2018-03-15T05:00:48.722Z,88.07
2018-03-15T05:03:20.329Z,87.74
2018-03-15T05:05:51.409Z,86.69
2018-03-15T05:08:22.632Z,86.44
2018-03-15T05:10:54.060Z,86.88
2018-03-15T05:13:25.393Z,85.46
2018-03-15T05:15:56.204Z,85.68
2018-03-15T05:18:28.129Z,86.51
2018-03-15T05:21:00.042Z,86.37
2018-03-15T05:23:31.606Z,86.40
2018-03-15T05:26:03.082Z,86.13
2018-03-15T05:28:34.328Z,86.44
2018-03-15T05:31:07.515Z,86.21
2018-03-15T05:33:39.112Z,86.43
2018-03-15T05:36:10.393Z,87.64
2018-03-15T05:38:42.153Z,87.87
2018-03-15T05:41:13.745Z,89.36
2018-03-15T05:43:44.641Z,88.56
2018-03-15T05:46:16.565Z,88.62
2018-03-15T05:48:49.493Z,89.04
2018-03-15T05:51:20.348Z,90.70
2018-03-15T05:53:52.065Z,89.60
2018-03-15T05:56:23.221Z,90.29
2018-03-15T05:58:54.382Z,90.84
2018-03-15T06:01:26.565Z,91.01
2018-03-15T06:03:57.421Z,91.00
2018-03-15T06:06:28.826Z,91.76
2018-03-15T06:08:59.964Z,91.94
2018-03-15T06:11:30.688Z,91.87
2018-03-15T06:14:02.484Z,91.55
2018-03-15T06:16:33.989Z,92.33
2018-03-15T06:19:05.233Z,92.71
2018-03-15T06:21:37.093Z,92.51
2018-03-15T06:24:08.596Z,93.47
2018-03-15T06:26:43.401Z,94.44
2018-03-15T06:29:20.638Z,94.59
2018-03-15T06:31:51.838Z,95.15
2018-03-15T06:34:22.971Z,94.80
2018-03-15T06:36:55.273Z,94.74
2018-03-15T06:39:26.129Z,94.95
2018-03-15T06:41:57.053Z,95.33
2018-03-15T06:44:27.833Z,96.09
2018-03-15T06:46:59.120Z,95.67
2018-03-15T06:49:30.740Z,95.22
2018-03-15T06:52:02.161Z,94.98
2018-03-15T06:54:32.946Z,94.44
2018-03-15T06:57:04.203Z,95.06
2018-03-15T06:59:44.241Z,94.84
2018-03-15T07:02:14.986Z,94.44
2018-03-15T07:04:46.106Z,94.22
2018-03-15T07:07:16.917Z,94.55
2018-03-15T07:09:47.716Z,94.26
2018-03-15T07:12:18.535Z,94.14
2018-03-15T07:14:49.925Z,93.82
2018-03-15T07:17:20.701Z,93.50
2018-03-15T07:19:51.849Z,93.65
2018-03-15T07:22:22.669Z,92.92
2018-03-15T07:24:54.273Z,92.53
2018-03-15T07:27:25.133Z,91.96
2018-03-15T07:29:55.908Z,91.68
2018-03-15T07:32:26.740Z,91.53
2018-03-15T07:34:58.223Z,91.77
2018-03-15T07:37:29.072Z,91.26
2018-03-15T07:40:00.157Z,90.99
2018-03-15T07:42:31.502Z,90.73
2018-03-15T07:45:02.344Z,90.26
2018-03-15T07:47:33.413Z,89.26
2018-03-15T07:50:04.247Z,89.30
2018-03-15T07:52:36.445Z,87.56
2018-03-15T07:55:07.597Z,88.14
2018-03-15T07:57:39.113Z,87.79
2018-03-15T08:00:10.478Z,86.73
2018-03-15T08:02:41.372Z,87.12
2018-03-15T08:05:12.333Z,87.34
2018-03-15T08:07:43.558Z,86.32
2018-03-15T08:10:15.099Z,86.52
2018-03-15T08:12:46.725Z,86.05
2018-03-15T08:15:17.822Z,85.93
2018-03-15T08:17:48.630Z,85.95
2018-03-15T08:20:20.000Z,86.32
2018-03-15T08:22:52.186Z,85.81
2018-03-15T08:25:23.018Z,86.36
2018-03-15T08:27:53.874Z,86.77
2018-03-15T08:30:24.701Z,86.96
2018-03-15T08:32:56.250Z,86.80
2018-03-15T08:35:27.421Z,86.35
2018-03-15T08:37:59.899Z,85.89
2018-03-15T08:40:31.693Z,86.56
2018-03-15T08:43:02.539Z,86.43
2018-03-15T08:45:33.351Z,86.73
2018-03-15T08:48:04.152Z,84.84
2018-03-15T08:50:35.034Z,85.27
2018-03-15T08:53:06.282Z,84.45
2018-03-15T08:55:37.417Z,83.83
2018-03-15T08:58:08.254Z,84.21
2018-03-15T09:00:39.611Z,82.09
2018-03-15T09:03:11.313Z,81.94
2018-03-15T09:05:42.166Z,82.64
2018-03-15T09:08:13.655Z,81.76
2018-03-15T09:10:44.916Z,81.00
2018-03-15T09:13:15.744Z,80.29
2018-03-15T09:15:47.181Z,79.84
2018-03-15T09:18:18.056Z,79.49
2018-03-15T09:20:49.200Z,78.21
2018-03-15T09:23:20.316Z,78.09
2018-03-15T09:25:51.809Z,77.03
2018-03-15T09:28:23.034Z,75.91
2018-03-15T09:30:54.226Z,76.65
2018-03-15T09:33:31.080Z,76.91
2018-03-15T09:36:02.190Z,75.96
2018-03-15T09:38:33.561Z,75.30
2018-03-15T09:41:04.846Z,75.77
2018-03-15T09:43:36.753Z,75.11
2018-03-15T09:46:07.694Z,73.09
2018-03-15T09:48:38.722Z,74.68
2018-03-15T09:51:10.029Z,73.28
2018-03-15T09:53:41.530Z,72.74
2018-03-15T09:56:12.345Z,72.19
2018-03-15T09:58:43.178Z,71.20
2018-03-15T10:01:14.284Z,71.33
2018-03-15T10:03:45.573Z,71.04
2018-03-15T10:06:16.677Z,71.23
2018-03-15T10:08:47.594Z,70.29
2018-03-15T10:11:18.777Z,70.74
2018-03-15T10:13:49.668Z,69.46
2018-03-15T10:16:23.628Z,68.67
2018-03-15T10:18:54.569Z,69.15
2018-03-15T10:21:25.742Z,68.20
2018-03-15T10:23:56.662Z,67.54
2018-03-15T10:26:28.377Z,68.54
2018-03-15T10:28:59.290Z,67.57
2018-03-15T10:31:30.877Z,66.36
2018-03-15T10:34:02.031Z,65.94
2018-03-15T10:36:33.076Z,65.40
2018-03-15T10:39:03.914Z,65.40
2018-03-15T10:41:34.750Z,65.14
2018-03-15T10:44:05.904Z,65.14
2018-03-15T10:46:37.426Z,65.30
2018-03-15T10:49:08.549Z,65.33
2018-03-15T10:51:39.310Z,64.69
2018-03-15T10:54:10.934Z,64.28
2018-03-15T10:56:42.038Z,63.07
2018-03-15T10:59:13.585Z,63.11
2018-03-15T11:01:48.299Z,64.18
2018-03-15T11:04:23.349Z,64.27
2018-03-15T11:06:58.028Z,63.90
2018-03-15T11:09:32.269Z,64.46
2018-03-15T11:12:03.133Z,64.00
2018-03-15T11:14:34.286Z,64.36
2018-03-15T11:17:05.159Z,65.36
2018-03-15T11:19:35.990Z,62.83
2018-03-15T11:22:07.152Z,63.25
2018-03-15T11:24:39.109Z,62.32
2018-03-15T11:27:09.796Z,63.27
2018-03-15T11:29:40.894Z,62.21
2018-03-15T11:32:11.806Z,62.11
2018-03-15T11:34:42.873Z,61.98
2018-03-15T11:37:13.906Z,61.10
2018-03-15T11:39:45.326Z,60.87
2018-03-15T11:42:16.459Z,61.07
2018-03-15T11:44:47.307Z,61.19
2018-03-15T11:47:18.690Z,61.43
2018-03-15T11:49:49.817Z,61.12
2018-03-15T11:52:21.306Z,59.99
2018-03-15T11:54:52.837Z,60.02
2018-03-15T11:57:24.023Z,61.30
2018-03-15T11:59:58.329Z,61.32
2018-03-15T12:02:29.772Z,60.90
2018-03-15T12:05:00.556Z,59.78
2018-03-15T12:07:31.405Z,59.32
2018-03-15T12:10:02.629Z,58.49
2018-03-15T12:12:35.313Z,59.37
2018-03-15T12:15:07.257Z,59.16
2018-03-15T12:17:38.142Z,59.37
2018-03-15T12:20:09.057Z,58.81
2018-03-15T12:22:40.197Z,59.29
2018-03-15T12:25:11.161Z,59.66
2018-03-15T12:27:42.098Z,60.18
2018-03-15T12:30:13.919Z,60.77
2018-03-15T12:32:44.689Z,59.14
2018-03-15T12:35:15.593Z,59.18
2018-03-15T12:37:46.822Z,58.21
2018-03-15T12:40:17.710Z,58.61
2018-03-15T12:42:48.486Z,58.45
2018-03-15T12:45:19.401Z,58.61
2018-03-15T12:47:53.613Z,58.65
2018-03-15T12:50:24.497Z,58.81
2018-03-15T12:52:55.932Z,58.83
2018-03-15T12:55:27.403Z,58.76
2018-03-15T12:57:58.214Z,57.55
2018-03-15T13:00:29.235Z,58.35
2018-03-15T13:03:00.448Z,58.66
2018-03-15T13:05:31.269Z,58.89
2018-03-15T13:08:02.101Z,58.00
2018-03-15T13:10:37.769Z,58.14
2018-03-15T13:13:09.180Z,57.73
2018-03-15T13:15:40.333Z,57.57
2018-03-15T13:18:11.156Z,57.80
2018-03-15T13:20:41.958Z,57.97
2018-03-15T13:23:13.622Z,57.36
2018-03-15T13:25:45.009Z,57.76
2018-03-15T13:28:15.865Z,56.83
2018-03-15T13:30:46.953Z,56.28
2018-03-15T13:33:17.922Z,56.63
2018-03-15T13:35:48.793Z,56.11
2018-03-15T13:38:19.933Z,56.07
2018-03-15T13:40:50.761Z,57.70
2018-03-15T13:43:21.630Z,57.29
2018-03-15T13:45:53.177Z,58.16
2018-03-15T13:48:24.250Z,58.54
2018-03-15T13:50:55.957Z,57.80
2018-03-15T13:53:26.821Z,58.44
2018-03-15T13:55:58.407Z,59.17
2018-03-15T13:58:29.277Z,59.60
2018-03-15T14:01:00.574Z,59.35
2018-03-15T14:03:31.686Z,59.31
2018-03-15T14:06:04.145Z,56.66
2018-03-15T14:08:35.205Z,57.54
2018-03-15T14:11:06.522Z,58.09
2018-03-15T14:13:37.365Z,58.19
2018-03-15T14:16:08.625Z,58.55
2018-03-15T14:18:39.637Z,58.41
2018-03-15T14:21:10.866Z,58.97
2018-03-15T14:23:41.634Z,59.06
2018-03-15T14:26:12.488Z,58.21
2018-03-15T14:28:43.532Z,58.79
2018-03-15T14:31:14.392Z,57.93
2018-03-15T14:33:45.214Z,57.78
2018-03-15T14:36:16.451Z,57.33
2018-03-15T14:38:47.291Z,56.62
2018-03-15T14:41:18.178Z,56.96
2018-03-15T14:43:51.338Z,57.22
2018-03-15T14:46:22.218Z,58.13
2018-03-15T14:48:53.401Z,57.34
2018-03-15T14:51:24.188Z,57.63
2018-03-15T14:53:55.166Z,58.19
2018-03-15T14:56:26.282Z,57.94
2018-03-15T14:58:57.018Z,57.86
2018-03-15T15:01:27.875Z,58.05
2018-03-15T15:03:58.929Z,57.76
2018-03-15T15:06:29.774Z,56.88
2018-03-15T15:09:00.622Z,57.94
2018-03-15T15:11:31.892Z,58.26
2018-03-15T15:14:02.722Z,56.46
2018-03-15T15:16:33.593Z,56.99
2018-03-15T15:19:04.734Z,56.99
2018-03-15T15:21:35.494Z,57.65
2018-03-15T15:24:06.656Z,57.91
2018-03-15T15:26:37.609Z,57.90
2018-03-15T15:29:08.631Z,58.04
2018-03-15T15:31:39.637Z,57.92
2018-03-15T15:34:10.466Z,58.07
2018-03-15T15:36:41.369Z,58.04
2018-03-15T15:39:12.649Z,58.04
2018-03-15T15:41:43.489Z,58.06
2018-03-15T15:44:15.294Z,58.17
2018-03-15T15:46:46.204Z,58.67
2018-03-15T15:49:16.997Z,58.79
2018-03-15T15:51:48.672Z,59.22
2018-03-15T15:54:19.509Z,60.15
2018-03-15T15:56:50.407Z,59.87
2018-03-15T15:59:21.536Z,59.94
2018-03-15T16:01:52.414Z,61.02
2018-03-15T16:04:23.317Z,61.10
2018-03-15T16:06:54.542Z,62.13
2018-03-15T16:09:25.480Z,62.07
2018-03-15T16:11:56.799Z,62.17
2018-03-15T16:14:27.826Z,62.47
2018-03-15T16:17:04.469Z,61.90
2018-03-15T16:19:35.609Z,62.73
2018-03-15T16:22:06.554Z,62.90
2018-03-15T16:24:37.344Z,62.52
2018-03-15T16:27:08.622Z,62.63
2018-03-15T16:29:39.493Z,62.94
2018-03-15T16:32:10.444Z,63.46
2018-03-15T16:34:41.618Z,62.78
2018-03-15T16:37:12.585Z,63.41
2018-03-15T16:39:43.585Z,63.36
2018-03-15T16:42:14.397Z,64.00
2018-03-15T16:44:45.311Z,64.96
2018-03-15T16:47:16.442Z,64.84
2018-03-15T16:49:47.293Z,64.97
2018-03-15T16:52:18.119Z,65.69
2018-03-15T16:54:53.219Z,64.94
2018-03-15T16:57:24.065Z,65.85
2018-03-15T16:59:55.821Z,66.76
2018-03-15T17:02:26.629Z,67.22
2018-03-15T17:04:57.605Z,67.00
2018-03-15T17:07:28.809Z,67.77
2018-03-15T17:09:59.705Z,67.32
2018-03-15T17:12:30.541Z,67.43
2018-03-15T17:15:01.670Z,67.28
2018-03-15T17:17:32.547Z,66.62
2018-03-15T17:20:03.574Z,66.91
2018-03-15T17:22:35.510Z,67.32
2018-03-15T17:25:06.739Z,68.52
2018-03-15T17:27:38.050Z,68.41
2018-03-15T17:30:10.135Z,68.20
2018-03-15T17:32:41.817Z,67.65
2018-03-15T17:35:13.356Z,68.74
2018-03-15T17:37:44.325Z,68.07
2018-03-15T17:40:15.742Z,67.52
2018-03-15T17:42:47.038Z,67.10
2018-03-15T17:45:18.089Z,67.35
2018-03-15T17:47:49.382Z,68.04
2018-03-15T17:50:20.512Z,68.72
2018-03-15T17:52:52.169Z,68.26
2018-03-15T17:55:23.439Z,69.60
2018-03-15T17:57:54.386Z,70.24
2018-03-15T18:00:26.038Z,70.21
2018-03-15T18:02:56.933Z,70.35
2018-03-15T18:05:27.773Z,70.86
2018-03-15T18:07:58.890Z,70.52
2018-03-15T18:10:29.970Z,70.16
2018-03-15T18:13:00.928Z,70.83
2018-03-15T18:15:33.230Z,70.81
2018-03-15T18:18:04.138Z,71.00
2018-03-15T18:20:35.078Z,71.43
2018-03-15T18:23:06.545Z,70.92
2018-03-15T18:25:37.798Z,70.84
2018-03-15T18:28:08.934Z,70.37
2018-03-15T18:30:40.306Z,71.22
2018-03-15T18:33:11.248Z,71.41
2018-03-15T18:35:42.312Z,71.19
2018-03-15T18:38:13.765Z,71.24
2018-03-15T18:40:44.623Z,71.10
2018-03-15T18:43:16.922Z,71.00
2018-03-15T18:45:48.010Z,70.90
2018-03-15T18:48:19.153Z,71.05
2018-03-15T18:50:50.362Z,71.51
2018-03-15T18:53:21.535Z,71.38
2018-03-15T18:55:52.386Z,72.27
2018-03-15T18:58:24.239Z,71.89
2018-03-15T19:00:55.090Z,71.82
2018-03-15T19:03:26.007Z,72.42
2018-03-15T19:05:56.916Z,71.52
2018-03-15T19:08:28.615Z,71.90
2018-03-15T19:11:00.325Z,72.31
2018-03-15T19:13:31.246Z,72.01
2018-03-15T19:16:02.366Z,72.43
2018-03-15T19:18:33.305Z,72.29
2018-03-15T19:21:04.266Z,72.49
2018-03-15T19:23:35.761Z,72.27
2018-03-15T19:26:06.728Z,72.63
2018-03-15T19:28:37.682Z,72.58
2018-03-15T19:31:08.898Z,72.90
2018-03-15T19:33:39.762Z,72.62
2018-03-15T19:36:11.205Z,72.15
2018-03-15T19:38:42.105Z,72.35
2018-03-15T19:41:12.988Z,71.78
2018-03-15T19:43:44.141Z,73.40
2018-03-15T19:46:15.021Z,72.33
2018-03-15T19:48:46.189Z,73.32
2018-03-15T19:51:17.326Z,76.47
2018-03-15T19:53:48.161Z,75.35
2018-03-15T19:56:19.042Z,76.32
2018-03-15T19:58:50.161Z,77.51
2018-03-15T20:01:21.018Z,76.54
2018-03-15T20:03:52.220Z,78.03
2018-03-15T20:06:23.190Z,76.99
2018-03-15T20:08:54.362Z,78.11
2018-03-15T20:11:25.285Z,79.17
2018-03-15T20:13:56.862Z,77.49
2018-03-15T20:16:28.450Z,77.99
2018-03-15T20:19:03.177Z,78.18
2018-03-15T20:21:34.364Z,79.58
2018-03-15T20:24:36.041Z,81.44
2018-03-15T20:27:07.194Z,82.85
2018-03-15T20:29:38.030Z,80.72
2018-03-15T20:32:09.845Z,79.16
2018-03-15T20:34:41.034Z,84.52
2018-03-15T20:37:11.934Z,82.88
2018-03-15T20:41:50.959Z,81.67
2018-03-15T20:44:22.317Z,82.55
2018-03-15T20:49:03.182Z,84.28
2018-03-15T20:51:34.122Z,85.68
2018-03-15T20:54:05.957Z,82.11
2018-03-15T20:56:37.733Z,86.08
2018-03-15T20:59:08.649Z,86.62
2018-03-15T21:01:39.624Z,85.04
2018-03-15T21:04:10.622Z,83.65
2018-03-15T21:06:42.691Z,82.13
2018-03-15T21:09:14.131Z,82.78
2018-03-15T21:11:45.138Z,84.51
2018-03-15T21:14:17.562Z,84.27
2018-03-15T21:16:48.834Z,82.41
2018-03-15T21:19:19.890Z,83.37
2018-03-15T21:21:51.081Z,83.87
2018-03-15T21:24:22.330Z,84.18
2018-03-15T21:26:53.137Z,86.93
2018-03-15T21:29:24.477Z,89.72
2018-03-15T21:31:55.841Z,88.73
2018-03-15T21:34:26.825Z,89.11
2018-03-15T21:36:59.073Z,90.78
2018-03-15T21:39:30.179Z,89.36
2018-03-15T21:42:01.101Z,91.88
2018-03-15T21:44:32.705Z,90.30
2018-03-15T21:47:04.249Z,88.24
2018-03-15T21:49:35.105Z,86.93
2018-03-15T21:52:06.778Z,87.10
2018-03-15T21:54:37.645Z,86.19
2018-03-15T21:57:08.925Z,87.13
2018-03-15T21:59:39.889Z,88.45
2018-03-15T22:02:10.758Z,90.28
2018-03-15T22:04:41.838Z,92.76
2018-03-15T22:07:13.141Z,91.53
2018-03-15T22:09:43.895Z,89.14
2018-03-15T22:12:15.325Z,87.21
2018-03-15T22:14:46.207Z,86.97
2018-03-15T22:17:17.021Z,87.72
2018-03-15T22:19:48.077Z,87.15
2018-03-15T22:22:18.903Z,87.09
2018-03-15T22:24:49.729Z,85.80
2018-03-15T22:27:20.809Z,85.73
2018-03-15T22:29:52.249Z,86.05
2018-03-15T22:32:23.202Z,84.56
2018-03-15T22:34:54.317Z,85.36
2018-03-15T22:37:25.141Z,87.25
2018-03-15T22:39:56.624Z,86.45
2018-03-15T22:42:32.248Z,85.91
2018-03-15T22:45:03.464Z,84.74
2018-03-15T22:47:34.978Z,84.69
2018-03-15T22:50:06.068Z,88.40
2018-03-15T22:52:36.843Z,87.68
2018-03-15T22:55:08.294Z,85.09
2018-03-15T22:57:39.794Z,85.58
2018-03-15T23:00:11.782Z,84.46
2018-03-15T23:02:42.864Z,86.05
2018-03-15T23:05:14.095Z,86.62
2018-03-15T23:07:45.134Z,85.82
2018-03-15T23:10:15.935Z,90.31
2018-03-15T23:12:47.004Z,89.48
2018-03-15T23:15:18.592Z,87.23
2018-03-15T23:17:49.404Z,86.51
2018-03-15T23:20:20.395Z,86.05
2018-03-15T23:22:52.171Z,85.31
2018-03-15T23:25:23.917Z,85.21
2018-03-15T23:27:54.673Z,87.19
2018-03-15T23:30:26.257Z,86.40
2018-03-15T23:32:57.463Z,85.96
2018-03-15T23:35:28.737Z,90.43
2018-03-15T23:37:59.889Z,91.14
2018-03-15T23:40:31.705Z,94.29
2018-03-15T23:43:02.545Z,89.83
2018-03-15T23:45:33.917Z,86.20
2018-03-15T23:48:04.823Z,91.70
2018-03-15T23:50:36.253Z,87.46
2018-03-15T23:53:07.893Z,88.00
2018-03-15T23:55:38.693Z,89.51
2018-03-15T23:58:09.515Z,88.41
